Time;durP1;ratioP1;P1;durP2;ratioP2;P2;SDS_P1;SDS_P2;PMS_P1;PMS_P2;Temp;Humidity;BMP_temperature;BMP_pressure;BME280_temperature;BME280_humidity;BME280_pressure;Samples;Min_cycle;Max_cycle;Signal;HPM_P1;HPM_P2
2022/02/18 00:02:11;;;;;;;8.70;2.80;;;;;;;3.59;66.52;96017.52;1821891;77;25774;-84
2022/02/18 00:04:38;;;;;;;11.83;3.65;;;;;;;3.64;66.18;96016.38;1821875;77;25739;-81
2022/02/18 00:07:05;;;;;;;10.35;3.37;;;;;;;3.72;65.89;96020.73;1821821;77;28276;-83
2022/02/18 00:09:32;;;;;;;6.97;2.02;;;;;;;3.80;65.56;96038.70;1813510;77;25948;-83
2022/02/18 00:11:59;;;;;;;11.57;3.12;;;;;;;3.92;64.73;96043.76;1813145;77;25874;-82
2022/02/18 00:14:26;;;;;;;8.93;3.00;;;;;;;4.01;64.12;96047.56;1813309;77;25704;-81
2022/02/18 00:16:53;;;;;;;7.30;2.33;;;;;;;4.06;63.70;96042.45;1813268;77;25685;-83
2022/02/18 00:19:19;;;;;;;10.23;3.65;;;;;;;4.09;63.39;96053.55;1813324;77;27997;-85
2022/02/18 00:21:48;;;;;;;9.55;2.95;;;;;;;4.13;63.28;96047.27;1813055;77;25721;-89
2022/02/18 00:24:16;;;;;;;7.08;2.50;;;;;;;4.16;62.81;96066.38;1813175;77;25676;-86
2022/02/18 00:26:44;;;;;;;7.50;2.20;;;;;;;4.20;62.65;96058.80;1813235;77;25800;-83
2022/02/18 00:29:11;;;;;;;8.33;2.67;;;;;;;4.24;62.36;96066.17;1813315;77;25710;-87
2022/02/18 00:31:38;;;;;;;7.17;2.92;;;;;;;4.29;62.11;96063.73;1813250;77;27203;-81
2022/02/18 00:34:04;;;;;;;6.22;1.92;;;;;;;4.30;62.05;96080.06;1813126;77;25747;-84
2022/02/18 00:36:32;;;;;;;5.62;2.12;;;;;;;4.31;61.35;96097.74;1813218;77;25772;-84
2022/02/18 00:38:58;;;;;;;6.40;1.95;;;;;;;4.37;61.17;96105.95;1813231;77;26353;-87
2022/02/18 00:41:25;;;;;;;5.80;1.90;;;;;;;4.34;60.99;96075.14;1813222;77;25676;-87
2022/02/18 00:43:52;;;;;;;8.45;2.00;;;;;;;4.35;60.80;96110.98;1813282;77;27492;-86
2022/02/18 00:46:18;;;;;;;5.83;1.80;;;;;;;4.38;60.48;96107.59;1813069;77;25806;-85
2022/02/18 00:48:45;;;;;;;4.17;1.80;;;;;;;4.39;59.92;96112.73;1813208;77;25767;-87
2022/02/18 00:51:12;;;;;;;5.70;1.52;;;;;;;4.39;59.75;96115.41;1812921;77;25720;-88
2022/02/18 00:53:39;;;;;;;4.75;1.70;;;;;;;4.41;59.51;96132.06;1813266;77;25696;-87
2022/02/18 00:56:06;;;;;;;4.10;1.60;;;;;;;4.40;58.93;96126.41;1813300;77;27333;-89
2022/02/18 00:58:33;;;;;;;11.75;2.58;;;;;;;4.42;58.64;96119.53;1813118;77;25738;-86
2022/02/18 01:00:59;;;;;;;9.73;2.25;;;;;;;4.41;58.72;96122.72;1813141;77;25819;-82
2022/02/18 01:03:26;;;;;;;6.22;2.22;;;;;;;4.43;58.70;96129.20;1813190;79;25740;-85
2022/02/18 01:05:53;;;;;;;7.50;1.62;;;;;;;4.40;58.78;96121.06;1813083;77;26380;-88
2022/02/18 01:08:19;;;;;;;9.05;1.85;;;;;;;4.42;58.84;96120.36;1815163;77;27785;-90
2022/02/18 01:10:47;;;;;;;5.45;2.12;;;;;;;4.39;58.88;96132.78;1821558;77;25825;-85
2022/02/18 01:13:14;;;;;;;5.62;1.87;;;;;;;4.39;58.94;96131.44;1821709;77;25787;-91
2022/02/18 01:15:40;;;;;;;8.58;2.15;;;;;;;4.40;58.84;96143.78;1821770;77;25498;-81
2022/02/18 01:18:07;;;;;;;7.33;2.05;;;;;;;4.37;58.70;96129.48;1821799;77;25752;-86
2022/02/18 01:20:34;;;;;;;3.47;1.95;;;;;;;4.36;58.06;96141.19;1821865;77;27353;-91
2022/02/18 01:23:01;;;;;;;7.35;2.12;;;;;;;4.38;58.12;96144.48;1821587;77;26043;-86
2022/02/18 01:25:27;;;;;;;7.17;2.10;;;;;;;4.38;58.22;96139.14;1821699;77;26225;-90
2022/02/18 01:27:56;;;;;;;7.87;2.40;;;;;;;4.39;58.32;96151.48;1821716;77;25710;-91
2022/02/18 01:30:27;;;;;;;5.08;1.52;;;;;;;4.40;58.19;96149.12;1821504;77;25748;-89
2022/02/18 01:32:54;;;;;;;9.28;2.10;;;;;;;4.41;58.17;96153.44;1821812;77;28154;-93
2022/02/18 01:35:20;;;;;;;3.90;1.65;;;;;;;4.42;57.50;96158.27;1821697;77;25719;-85
2022/02/18 01:37:49;;;;;;;5.78;2.00;;;;;;;4.42;57.01;96186.33;1821862;77;25762;-90
2022/02/18 01:40:16;;;;;;;10.20;2.15;;;;;;;4.42;56.67;96173.80;1821850;77;25755;-89
2022/02/18 01:42:43;;;;;;;8.13;1.92;;;;;;;4.43;55.55;96176.78;1821830;77;25740;-90
2022/02/18 01:45:10;;;;;;;6.08;1.80;;;;;;;4.44;55.93;96183.77;1821878;77;27326;-90
2022/02/18 01:47:37;;;;;;;6.65;1.67;;;;;;;4.45;55.83;96182.75;1821723;77;25799;-91
2022/02/18 01:50:06;;;;;;;5.12;1.42;;;;;;;4.46;55.65;96212.45;1821813;77;25743;-90
2022/02/18 01:52:44;;;;;;;6.40;1.80;;;;;;;4.45;55.03;96213.98;1821481;77;25776;-91
2022/02/18 01:55:13;;;;;;;5.65;1.85;;;;;;;4.44;55.12;96189.12;1789813;78;25879;-88
2022/02/18 01:57:45;;;;;;;2.83;0.90;;;;;;;4.44;54.53;96194.45;1822096;78;27359;-89
2022/02/18 02:00:14;;;;;;;4.75;1.30;;;;;;;4.43;54.47;96203.50;1820546;78;34782;-90
2022/02/18 02:02:42;;;;;;;6.90;1.67;;;;;;;4.41;54.74;96204.72;1822113;77;25932;-91
2022/02/18 02:05:10;;;;;;;5.47;1.82;;;;;;;4.38;54.81;96208.61;1822035;77;25379;-86
2022/02/18 02:07:39;;;;;;;8.15;2.17;;;;;;;4.34;54.85;96211.39;1822128;77;25676;-87
2022/02/18 02:10:08;;;;;;;6.95;1.50;;;;;;;4.32;54.79;96225.46;1814432;77;28153;-88
2022/02/18 02:12:42;;;;;;;5.65;1.87;;;;;;;4.30;54.83;96216.81;1813344;77;26169;-88
2022/02/18 02:15:11;;;;;;;4.22;1.45;;;;;;;4.26;54.75;96212.89;1812223;77;25729;-89
2022/02/18 02:17:38;;;;;;;10.63;2.00;;;;;;;4.25;54.68;96224.59;1813488;77;25370;-87
2022/02/18 02:20:07;;;;;;;7.67;1.75;;;;;;;4.24;54.57;96214.94;1813418;77;25785;-89
2022/02/18 02:22:33;;;;;;;5.28;1.57;;;;;;;4.21;54.54;96220.70;1813529;79;27583;-91
2022/02/18 02:25:01;;;;;;;4.87;1.20;;;;;;;4.18;54.60;96231.27;1813278;77;25759;-85
2022/02/18 02:27:30;;;;;;;9.73;2.10;;;;;;;4.18;54.37;96228.59;1813457;77;25779;-88
2022/02/18 02:29:56;;;;;;;5.65;1.70;;;;;;;4.16;54.55;96248.51;1813415;77;26289;-90
2022/02/18 02:32:23;;;;;;;5.40;1.75;;;;;;;4.13;54.59;96246.23;1813489;77;25680;-90
2022/02/18 02:34:50;;;;;;;6.05;1.92;;;;;;;4.13;54.77;96263.59;1813439;77;28296;-91
2022/02/18 02:37:17;;;;;;;7.90;1.98;;;;;;;4.10;54.84;96265.34;1813279;77;25614;-90
2022/02/18 02:39:43;;;;;;;6.45;1.80;;;;;;;4.09;54.92;96273.04;1813341;77;25916;-90
2022/02/18 02:42:11;;;;;;;6.97;2.17;;;;;;;4.07;54.95;96268.41;1813384;77;25708;-92
2022/02/18 02:44:37;;;;;;;6.85;1.50;;;;;;;4.06;54.92;96276.09;1813282;77;25806;-87
2022/02/18 02:47:05;;;;;;;5.67;1.95;;;;;;;4.01;55.04;96267.84;1813003;77;27369;-87
2022/02/18 02:49:32;;;;;;;8.85;2.20;;;;;;;3.96;54.87;96263.94;1813100;77;25742;-91
2022/02/18 02:51:59;;;;;;;4.58;1.42;;;;;;;3.91;54.96;96267.70;1813222;77;25749;-86
2022/02/18 02:54:26;;;;;;;6.75;1.55;;;;;;;3.85;55.04;96271.17;1813349;77;26128;-84
2022/02/18 02:56:55;;;;;;;7.60;2.10;;;;;;;3.80;54.90;96273.59;1813368;78;25718;-84
2022/02/18 02:59:21;;;;;;;5.00;1.50;;;;;;;3.77;54.89;96267.31;1812973;77;27398;-87
2022/02/18 03:01:48;;;;;;;7.33;2.25;;;;;;;3.77;54.69;96261.97;1813281;77;25896;-91
2022/02/18 03:04:14;;;;;;;4.75;1.95;;;;;;;3.77;54.73;96263.81;1813218;77;25263;-90
2022/02/18 03:06:41;;;;;;;6.50;1.75;;;;;;;3.77;54.71;96281.98;1813325;77;25904;-86
2022/02/18 03:09:12;;;;;;;5.40;2.10;;;;;;;3.77;54.67;96269.98;1815917;77;26609;-89
2022/02/18 03:11:39;;;;;;;3.37;1.30;;;;;;;3.78;54.72;96282.30;1822438;77;27345;-81
2022/02/18 03:14:05;;;;;;;5.95;1.92;;;;;;;3.77;54.67;96271.31;1822356;77;25719;-86
2022/02/18 03:16:32;;;;;;;5.42;1.55;;;;;;;3.77;54.73;96293.17;1822472;77;26083;-91
2022/02/18 03:18:59;;;;;;;6.40;1.40;;;;;;;3.76;54.75;96293.69;1822494;77;25999;-86
2022/02/18 03:21:25;;;;;;;5.70;1.57;;;;;;;3.76;54.45;96294.20;1822463;77;25906;-84
2022/02/18 03:23:52;;;;;;;11.22;1.40;;;;;;;3.74;54.50;96294.41;1821100;77;27341;-86
2022/02/18 03:26:21;;;;;;;5.60;1.42;;;;;;;3.75;54.60;96298.70;1789869;78;25776;-88
2022/02/18 03:28:48;;;;;;;5.85;1.32;;;;;;;3.77;54.56;96309.19;1789984;79;26026;-89
2022/02/18 03:31:15;;;;;;;3.52;1.40;;;;;;;3.75;54.74;96306.71;1789941;78;26344;-85
2022/02/18 03:33:43;;;;;;;8.68;2.00;;;;;;;3.74;54.84;96309.09;1790003;78;25712;-86
2022/02/18 03:36:10;;;;;;;6.70;1.75;;;;;;;3.75;54.88;96315.23;1789985;78;27367;-90
2022/02/18 03:38:37;;;;;;;5.12;1.80;;;;;;;3.76;55.02;96309.70;1789875;78;25719;-85
2022/02/18 03:41:04;;;;;;;6.40;1.80;;;;;;;3.76;55.10;96313.70;1789979;79;26277;-87
2022/02/18 03:43:30;;;;;;;4.45;1.50;;;;;;;3.79;55.26;96317.83;1789867;78;25812;-87
2022/02/18 03:45:57;;;;;;;3.75;1.40;;;;;;;3.80;55.33;96329.66;1789614;78;25683;-89
2022/02/18 03:48:24;;;;;;;8.93;1.80;;;;;;;3.81;55.35;96340.65;1789917;79;27347;-88
2022/02/18 03:50:50;;;;;;;4.92;1.82;;;;;;;3.81;55.42;96325.97;1789824;79;25805;-88
2022/02/18 03:53:17;;;;;;;4.33;1.98;;;;;;;3.82;55.47;96331.62;1789976;78;26315;-89
2022/02/18 03:55:44;;;;;;;6.40;2.20;;;;;;;3.82;55.52;96320.95;1790028;79;25988;-87
2022/02/18 03:58:10;;;;;;;5.40;1.85;;;;;;;3.85;55.55;96339.76;1789959;79;25287;-87
2022/02/18 04:00:38;;;;;;;7.70;1.80;;;;;;;3.87;55.59;96364.39;1789701;79;27483;-86
2022/02/18 04:03:04;;;;;;;4.00;1.42;;;;;;;3.88;55.63;96362.86;1789867;78;25691;-87
2022/02/18 04:05:31;;;;;;;3.12;1.42;;;;;;;3.88;55.54;96346.84;1789958;79;25818;-90
2022/02/18 04:07:58;;;;;;;8.40;2.70;;;;;;;3.89;55.49;96353.84;1789954;78;25692;-90
2022/02/18 04:10:24;;;;;;;7.15;2.12;;;;;;;3.90;55.47;96376.02;1789710;78;25768;-86
2022/02/18 04:12:51;;;;;;;9.10;2.80;;;;;;;3.90;55.37;96357.33;1789992;79;27441;-86
2022/02/18 04:15:18;;;;;;;8.08;1.82;;;;;;;3.89;55.17;96351.67;1789966;79;25759;-89
2022/02/18 04:17:45;;;;;;;8.58;1.92;;;;;;;3.90;54.77;96355.48;1789887;78;25262;-85
2022/02/18 04:20:12;;;;;;;5.33;1.80;;;;;;;3.91;54.78;96353.64;1789934;79;25804;-88
2022/02/18 04:22:39;;;;;;;6.37;1.57;;;;;;;3.90;54.54;96354.16;1789993;79;25800;-88
2022/02/18 04:25:07;;;;;;;4.30;1.70;;;;;;;3.89;54.43;96349.83;1790016;78;27363;-88
2022/02/18 04:27:33;;;;;;;6.05;1.57;;;;;;;3.89;54.36;96364.52;1789935;79;25768;-90
2022/02/18 04:30:00;;;;;;;4.60;1.37;;;;;;;3.91;54.33;96359.81;1789771;79;25819;-89
2022/02/18 04:32:27;;;;;;;7.78;1.62;;;;;;;3.94;54.34;96369.28;1789965;78;26140;-91
2022/02/18 04:34:53;;;;;;;5.75;1.55;;;;;;;3.95;54.38;96370.42;1790028;79;25724;-89
2022/02/18 04:37:20;;;;;;;6.28;1.40;;;;;;;3.96;54.36;96378.75;1789985;79;28157;-91
2022/02/18 04:39:47;;;;;;;5.80;1.30;;;;;;;3.98;54.17;96379.90;1789923;79;25819;-87
2022/02/18 04:42:13;;;;;;;3.72;1.35;;;;;;;3.97;54.13;96378.25;1789930;80;26156;-88
2022/02/18 04:44:40;;;;;;;5.28;1.75;;;;;;;3.99;53.96;96374.84;1790028;78;25719;-89
2022/02/18 04:47:07;;;;;;;8.00;1.32;;;;;;;3.96;54.00;96369.41;1789933;79;25685;-90
2022/02/18 04:49:34;;;;;;;3.80;1.17;;;;;;;3.97;53.79;96381.74;1789644;78;27402;-88
2022/02/18 04:52:01;;;;;;;8.30;1.70;;;;;;;3.96;53.79;96373.41;1789897;78;25720;-89
2022/02/18 04:54:27;;;;;;;5.83;1.40;;;;;;;4.01;53.45;96388.00;1790060;78;25759;-92
2022/02/18 04:56:54;;;;;;;5.37;2.22;;;;;;;4.01;53.48;96386.67;1790033;79;26292;-91
2022/02/18 04:59:21;;;;;;;6.95;2.00;;;;;;;4.05;53.59;96389.27;1789988;79;25751;-87
2022/02/18 05:01:47;;;;;;;5.20;1.72;;;;;;;4.04;53.67;96379.61;1790048;80;27418;-82
2022/02/18 05:04:14;;;;;;;7.55;1.57;;;;;;;4.05;53.64;96399.45;1789871;79;25739;-88
2022/02/18 05:06:40;;;;;;;4.65;2.42;;;;;;;4.05;53.61;96387.43;1790035;79;25432;-87
2022/02/18 05:09:07;;;;;;;7.62;1.87;;;;;;;4.05;53.65;96397.29;1789953;78;25776;-91
2022/02/18 05:11:34;;;;;;;5.80;2.33;;;;;;;4.04;53.61;96406.31;1789628;78;25728;-91
2022/02/18 05:14:00;;;;;;;7.45;1.92;;;;;;;4.03;53.67;96410.83;1790012;78;28500;-88
2022/02/18 05:16:27;;;;;;;5.92;1.77;;;;;;;4.04;53.76;96414.33;1789801;78;25774;-89
2022/02/18 05:18:55;;;;;;;13.40;4.75;;;;;;;4.03;53.66;96416.17;1789947;79;25769;-84
2022/02/18 05:21:25;;;;;;;11.63;4.67;;;;;;;4.04;53.75;96414.33;1789935;78;25691;-87
2022/02/18 05:23:52;;;;;;;9.73;2.47;;;;;;;4.02;53.72;96415.85;1789878;79;26032;-87
2022/02/18 05:26:18;;;;;;;9.10;1.82;;;;;;;3.99;53.64;96420.23;1789962;79;28166;-84
2022/02/18 05:28:45;;;;;;;13.18;4.85;;;;;;;3.96;53.71;96421.48;1789589;78;25847;-85
2022/02/18 05:31:12;;;;;;;10.25;4.40;;;;;;;3.96;53.94;96442.84;1790128;79;25689;-88
2022/02/18 05:33:38;;;;;;;17.15;3.55;;;;;;;3.96;53.85;96425.48;1790138;79;25653;-86
2022/02/18 05:36:05;;;;;;;10.25;4.37;;;;;;;3.96;53.77;96418.80;1790177;78;25299;-86
2022/02/18 05:38:32;;;;;;;12.75;4.53;;;;;;;3.96;53.87;96419.31;1790172;78;28339;-91
2022/02/18 05:41:00;;;;;;;16.93;8.43;;;;;;;3.96;53.96;96444.17;1789944;78;25816;-90
2022/02/18 05:43:26;;;;;;;13.98;6.65;;;;;;;3.96;53.83;96438.83;1790252;79;25865;-91
2022/02/18 05:45:53;;;;;;;13.93;5.90;;;;;;;3.98;54.01;96435.43;1790092;79;26058;-90
2022/02/18 05:48:19;;;;;;;14.78;5.10;;;;;;;4.02;54.03;96445.22;1790146;78;25677;-90
2022/02/18 05:50:47;;;;;;;13.98;4.67;;;;;;;4.00;53.94;96432.58;1790063;79;28192;-82
2022/02/18 05:53:13;;;;;;;14.93;4.40;;;;;;;4.02;54.00;96429.71;1790087;80;25914;-91
2022/02/18 05:55:40;;;;;;;13.98;4.35;;;;;;;4.04;54.04;96427.68;1790136;78;25405;-92
2022/02/18 05:58:07;;;;;;;11.65;4.85;;;;;;;4.06;54.15;96445.67;1790105;79;26181;-83
2022/02/18 06:00:34;;;;;;;19.75;8.05;;;;;;;4.08;54.18;96431.63;1790173;79;25255;-90
2022/02/18 06:03:01;;;;;;;11.97;4.40;;;;;;;4.09;54.19;96447.45;1790242;78;27347;-82
2022/02/18 06:05:27;;;;;;;12.37;5.03;;;;;;;4.08;54.14;96450.31;1789997;78;26033;-84
2022/02/18 06:07:54;;;;;;;18.17;6.25;;;;;;;4.04;54.15;96446.38;1790160;78;25748;-82
2022/02/18 06:10:22;;;;;;;13.18;5.60;;;;;;;4.03;54.15;96461.56;1789779;78;25873;-85
2022/02/18 06:12:50;;;;;;;11.22;4.10;;;;;;;4.06;54.20;96460.36;1790061;78;26349;-81
2022/02/18 06:15:17;;;;;;;21.10;7.12;;;;;;;4.09;54.29;96469.33;1790114;78;28439;-81
2022/02/18 06:17:44;;;;;;;13.55;5.37;;;;;;;4.10;54.19;96464.30;1790002;78;26331;-85
2022/02/18 06:20:12;;;;;;;38.15;15.13;;;;;;;4.10;54.19;96470.47;1790080;78;25874;-83
2022/02/18 06:22:39;;;;;;;18.85;7.70;;;;;;;4.09;54.26;96467.48;1790111;78;26176;-83
2022/02/18 06:25:08;;;;;;;18.57;5.72;;;;;;;4.08;54.27;96477.02;1790098;78;26280;-84
2022/02/18 06:27:36;;;;;;;22.13;6.20;;;;;;;4.10;54.30;96480.33;1789668;79;27438;-81
2022/02/18 06:30:04;;;;;;;20.75;8.63;;;;;;;4.11;54.27;96494.80;1789850;79;25644;-82
2022/02/18 06:32:31;;;;;;;10.80;3.80;;;;;;;4.09;54.22;96494.70;1790044;78;25783;-80
2022/02/18 06:34:57;;;;;;;10.45;5.40;;;;;;;4.10;54.27;96507.04;1790051;79;26211;-81
2022/02/18 06:37:25;;;;;;;9.18;3.77;;;;;;;4.08;54.25;96517.08;1790010;78;25751;-81
2022/02/18 06:39:52;;;;;;;9.25;3.55;;;;;;;4.07;54.24;96526.11;1790051;78;27414;-82
2022/02/18 06:42:19;;;;;;;11.05;5.58;;;;;;;4.05;54.31;96514.78;1789873;78;25723;-81
2022/02/18 06:44:46;;;;;;;12.55;3.75;;;;;;;4.04;54.39;96526.48;1790012;78;25667;-81
2022/02/18 06:47:13;;;;;;;15.72;4.10;;;;;;;4.02;54.31;96522.67;1790063;78;25707;-80
2022/02/18 06:49:44;;;;;;;11.20;3.30;;;;;;;4.01;54.23;96538.88;1789684;78;26089;-88
2022/02/18 06:52:12;;;;;;;9.28;3.30;;;;;;;4.01;54.21;96532.20;1789713;78;27553;-88
2022/02/18 06:54:40;;;;;;;10.35;4.03;;;;;;;4.07;54.29;96536.80;1789889;78;26296;-82
2022/02/18 06:57:07;;;;;;;6.87;2.60;;;;;;;4.13;54.26;96545.36;1790018;78;25759;-83
2022/02/18 06:59:34;;;;;;;12.70;4.17;;;;;;;4.16;54.11;96532.96;1789938;78;25823;-83
2022/02/18 07:02:00;;;;;;;8.53;4.78;;;;;;;4.20;54.17;96520.88;1789702;78;25692;-84
2022/02/18 07:04:28;;;;;;;10.32;3.55;;;;;;;4.22;53.94;96546.39;1790036;79;27337;-84
2022/02/18 07:06:54;;;;;;;6.20;3.25;;;;;;;4.21;53.88;96527.88;1789874;79;25688;-82
2022/02/18 07:09:21;;;;;;;10.25;3.75;;;;;;;4.21;53.71;96535.89;1789962;78;25680;-86
2022/02/18 07:11:50;;;;;;;7.58;2.27;;;;;;;4.21;53.61;96536.72;1782699;78;25832;-81
2022/02/18 07:14:17;;;;;;;13.48;4.17;;;;;;;4.25;53.52;96529.12;1781257;79;25716;-85
2022/02/18 07:16:44;;;;;;;12.55;3.47;;;;;;;4.28;53.64;96518.06;1781165;79;27371;-88
2022/02/18 07:19:12;;;;;;;5.72;2.52;;;;;;;4.30;53.63;96519.53;1781064;79;25745;-82
2022/02/18 07:21:39;;;;;;;8.95;2.80;;;;;;;4.32;53.37;96535.37;1781063;79;25828;-84
2022/02/18 07:24:10;;;;;;;14.20;5.10;;;;;;;4.33;53.26;96529.01;1781180;79;25745;-82
2022/02/18 07:26:37;;;;;;;17.02;6.33;;;;;;;4.37;53.28;96522.23;1781214;79;25707;-83
2022/02/18 07:29:05;;;;;;;15.60;6.17;;;;;;;4.40;53.11;96529.05;1781093;79;28169;-87
2022/02/18 07:31:32;;;;;;;11.05;4.42;;;;;;;4.44;53.08;96535.16;1781004;79;25725;-82
2022/02/18 07:33:59;;;;;;;13.78;4.90;;;;;;;4.49;52.92;96535.89;1781203;79;25587;-83
2022/02/18 07:36:26;;;;;;;13.65;4.55;;;;;;;4.53;52.84;96535.83;1780766;79;25779;-81
2022/02/18 07:38:53;;;;;;;17.82;5.67;;;;;;;4.56;52.70;96522.91;1781161;79;25709;-82
2022/02/18 07:41:20;;;;;;;11.60;4.20;;;;;;;4.60;52.51;96530.00;1781117;79;28195;-81
2022/02/18 07:43:48;;;;;;;14.05;3.45;;;;;;;4.67;52.57;96531.72;1781034;79;25747;-82
2022/02/18 07:46:16;;;;;;;14.45;4.45;;;;;;;4.73;52.52;96529.27;1781019;79;26271;-83
2022/02/18 07:48:43;;;;;;;34.25;14.53;;;;;;;4.81;52.51;96541.16;1780817;79;25747;-82
2022/02/18 07:51:09;;;;;;;24.98;11.93;;;;;;;4.91;52.92;96526.92;1781030;79;25243;-87
2022/02/18 07:53:36;;;;;;;8.30;3.33;;;;;;;5.04;52.69;96548.40;1781137;79;28124;-81
2022/02/18 07:56:03;;;;;;;7.60;3.12;;;;;;;5.18;52.39;96550.13;1781089;80;25720;-81
2022/02/18 07:58:30;;;;;;;8.48;2.83;;;;;;;5.25;51.98;96531.41;1781063;79;25235;-83
2022/02/18 08:00:57;;;;;;;4.85;2.50;;;;;;;5.35;51.62;96546.06;1781044;79;25744;-85
2022/02/18 08:03:25;;;;;;;6.28;2.20;;;;;;;5.46;51.50;96558.05;1781190;79;25712;-84
2022/02/18 08:05:53;;;;;;;10.85;2.60;;;;;;;5.56;51.01;96552.31;1781210;79;27391;-87
2022/02/18 08:08:24;;;;;;;9.45;3.12;;;;;;;5.65;50.77;96544.44;1780928;80;25732;-83
2022/02/18 08:10:48;;;;;;;15.32;7.17;;;;;;;5.74;50.73;96550.75;1780160;78;25283;-85
2022/02/18 08:13:14;;;;;;;7.00;3.87;;;;;;;5.85;50.80;96545.82;1781057;79;25695;-85
2022/02/18 08:15:41;;;;;;;11.22;4.17;;;;;;;5.91;50.37;96540.53;1781155;79;25746;-88
2022/02/18 08:18:08;;;;;;;7.67;3.50;;;;;;;5.96;50.21;96543.41;1781069;79;27403;-84
2022/02/18 08:20:35;;;;;;;6.65;2.83;;;;;;;6.01;50.13;96544.14;1781029;79;25267;-81
2022/02/18 08:23:02;;;;;;;8.08;2.85;;;;;;;6.11;49.54;96557.45;1781107;79;25649;-83
2022/02/18 08:25:29;;;;;;;8.80;2.00;;;;;;;6.25;49.51;96554.79;1781057;79;25733;-85
2022/02/18 08:27:56;;;;;;;6.05;2.90;;;;;;;6.38;49.43;96552.95;1780994;79;25741;-83
2022/02/18 08:30:23;;;;;;;9.05;2.47;;;;;;;6.52;49.39;96559.66;1780979;79;27539;-85
2022/02/18 08:32:49;;;;;;;4.47;2.75;;;;;;;6.67;49.31;96578.50;1781219;79;26335;-83
2022/02/18 08:35:16;;;;;;;14.15;7.45;;;;;;;6.76;48.93;96581.83;1781083;79;25735;-83
2022/02/18 08:37:43;;;;;;;10.23;2.92;;;;;;;6.71;48.17;96569.02;1780824;79;26215;-86
2022/02/18 08:40:11;;;;;;;6.37;2.33;;;;;;;6.67;48.18;96565.09;1781160;79;25693;-84
2022/02/18 08:42:38;;;;;;;10.98;2.33;;;;;;;6.72;47.93;96555.92;1781033;79;27350;-81
2022/02/18 08:45:06;;;;;;;9.23;1.98;;;;;;;6.74;47.62;96563.25;1781079;79;25776;-90
2022/02/18 08:47:34;;;;;;;7.70;2.02;;;;;;;6.83;47.82;96560.66;1780999;79;25856;-84
2022/02/18 08:50:01;;;;;;;8.25;3.12;;;;;;;7.16;47.97;96561.10;1781090;79;25716;-84
2022/02/18 08:52:28;;;;;;;19.60;8.48;;;;;;;7.43;47.74;96561.86;1781070;79;25759;-84
2022/02/18 08:54:55;;;;;;;46.50;20.90;;;;;;;7.55;47.20;96556.95;1803091;77;27459;-87
2022/02/18 08:57:23;;;;;;;13.75;4.92;;;;;;;7.77;46.99;96556.64;1812931;77;25730;-83
2022/02/18 08:59:50;;;;;;;8.33;2.80;;;;;;;7.89;46.92;96561.64;1813036;77;25788;-81
2022/02/18 09:02:17;;;;;;;21.40;9.35;;;;;;;8.20;47.06;96562.20;1812170;77;25717;-85
2022/02/18 09:04:44;;;;;;;19.30;10.18;;;;;;;8.49;46.31;96565.63;1742297;80;25743;-85
2022/02/18 09:07:11;;;;;;;10.38;6.85;;;;;;;8.48;45.16;96580.64;1724340;81;28656;-83
2022/02/18 09:09:40;;;;;;;7.53;3.50;;;;;;;8.54;45.28;96567.67;1780115;79;25667;-86
2022/02/18 09:12:06;;;;;;;3.15;1.37;;;;;;;8.85;45.40;96595.87;1780000;80;26354;-83
2022/02/18 09:14:33;;;;;;;5.92;1.87;;;;;;;8.99;44.59;96576.39;1780378;80;26220;-84
2022/02/18 09:17:01;;;;;;;9.13;2.45;;;;;;;9.25;44.01;96573.97;1780161;79;25837;-84
2022/02/18 09:19:27;;;;;;;4.17;1.82;;;;;;;9.56;43.92;96574.34;1780353;79;27554;-84
2022/02/18 09:21:55;;;;;;;4.37;1.35;;;;;;;9.81;43.73;96572.90;1781001;80;25833;-85
2022/02/18 09:24:22;;;;;;;6.90;1.57;;;;;;;9.96;42.83;96576.03;1781013;79;25673;-86
2022/02/18 09:26:49;;;;;;;3.75;1.75;;;;;;;9.93;42.89;96579.17;1781043;79;26250;-84
2022/02/18 09:29:17;;;;;;;4.90;1.30;;;;;;;9.93;42.63;96576.48;1781089;80;25716;-85
2022/02/18 09:31:44;;;;;;;4.90;2.47;;;;;;;10.09;42.27;96577.20;1781026;80;27345;-85
2022/02/18 09:34:13;;;;;;;6.87;3.50;;;;;;;10.29;42.01;96575.07;1780654;80;25871;-86
2022/02/18 09:36:40;;;;;;;8.78;3.20;;;;;;;10.56;41.96;96573.34;1781022;79;25698;-87
2022/02/18 09:39:07;;;;;;;6.40;2.05;;;;;;;10.84;40.85;96578.91;1781076;79;26150;-85
2022/02/18 09:41:39;;;;;;;11.12;7.17;;;;;;;10.84;41.28;96578.91;1781100;80;25834;-83
2022/02/18 09:44:12;;;;;;;5.28;2.00;;;;;;;11.14;41.41;96582.33;1781272;80;26886;-87
2022/02/18 09:46:42;;;;;;;5.67;2.00;;;;;;;11.01;40.40;96575.80;1781089;79;25711;-89
2022/02/18 09:49:11;;;;;;;5.95;1.90;;;;;;;11.09;40.56;96569.25;1781579;79;25333;-85
2022/02/18 09:51:39;;;;;;;5.53;1.60;;;;;;;11.35;40.38;96567.95;1781059;79;26188;-84
2022/02/18 09:54:07;;;;;;;4.70;1.70;;;;;;;11.24;39.86;96576.33;1781069;80;25271;-84
2022/02/18 09:56:35;;;;;;;7.95;2.20;;;;;;;11.42;40.34;96577.56;1781116;80;28188;-86
2022/02/18 09:59:05;;;;;;;5.35;2.58;;;;;;;11.58;40.06;96574.67;1781074;80;25689;-82
2022/02/18 10:01:32;;;;;;;4.03;1.70;;;;;;;11.53;39.81;96574.02;1780869;80;25682;-91
2022/02/18 10:04:00;;;;;;;4.92;1.30;;;;;;;11.69;39.88;96567.59;1781167;79;25769;-89
2022/02/18 10:06:30;;;;;;;3.08;2.00;;;;;;;11.94;39.30;96571.39;1781127;80;25727;-85
2022/02/18 10:08:59;;;;;;;3.55;1.45;;;;;;;11.89;39.28;96572.91;1781151;80;27364;-90
2022/02/18 10:11:26;;;;;;;3.98;1.25;;;;;;;12.01;38.72;96567.47;1783010;78;25730;-86
2022/02/18 10:13:54;;;;;;;5.33;1.60;;;;;;;11.79;39.05;96567.31;1790142;79;25738;-86
2022/02/18 10:16:24;;;;;;;5.70;1.90;;;;;;;12.06;39.61;96564.05;1790121;80;25667;-87
2022/02/18 10:18:59;;;;;;;5.70;1.92;;;;;;;12.36;38.70;96563.80;1790144;80;25674;-93
2022/02/18 10:21:30;;;;;;;4.42;1.40;;;;;;;12.58;39.25;96562.84;1790156;80;28133;-91
2022/02/18 10:24:18;;;;;;;5.47;1.57;;;;;;;12.76;38.43;96569.11;1789346;79;25679;-90
2022/02/18 10:26:49;;;;;;;4.87;2.05;;;;;;;12.70;38.64;96556.00;1790086;80;25688;-91
2022/02/18 10:29:25;;;;;;;6.78;2.80;;;;;;;12.81;38.72;96558.34;1790136;80;26108;-87
2022/02/18 10:32:13;;;;;;;7.25;2.45;;;;;;;12.88;38.13;96555.78;1790079;79;25266;-90
2022/02/18 10:35:04;;;;;;;7.28;3.65;;;;;;;13.01;38.54;96553.80;1790231;79;27583;-91
2022/02/18 10:37:34;;;;;;;5.83;1.90;;;;;;;13.08;37.87;96551.20;1778324;80;25908;-92
2022/02/18 10:40:14;;;;;;;6.85;2.30;;;;;;;13.11;37.56;96564.27;1790776;79;25776;-91
2022/02/18 10:42:44;;;;;;;4.72;1.80;;;;;;;13.06;36.69;96558.75;1789969;80;25754;-89
2022/02/18 10:45:18;;;;;;;3.58;1.50;;;;;;;12.97;36.84;96569.19;1790118;80;25670;-90
2022/02/18 10:47:49;;;;;;;3.55;1.45;;;;;;;12.91;36.95;96550.41;1790032;80;28132;-92
2022/02/18 10:50:23;;;;;;;6.12;1.77;;;;;;;13.03;37.24;96547.61;1789931;80;25759;-90
2022/02/18 10:53:21;;;;;;;3.10;1.27;;;;;;;13.18;36.50;96541.89;1789943;79;25242;-92
2022/02/18 10:55:53;;;;;;;4.50;1.60;;;;;;;12.99;36.10;96542.67;1763692;80;25861;-87
2022/02/18 10:58:27;;;;;;;6.65;1.55;;;;;;;12.92;35.65;96557.47;1790217;79;25683;-87
2022/02/18 11:01:17;;;;;;;5.92;1.72;;;;;;;13.04;35.58;96542.48;1790112;80;27251;-86
2022/02/18 11:03:54;;;;;;;3.00;1.30;;;;;;;13.16;36.03;96544.59;1790045;80;25719;-94
2022/02/18 11:06:29;;;;;;;3.60;1.72;;;;;;;13.58;36.34;96532.70;1788419;80;25860;-89
2022/02/18 11:09:08;;;;;;;5.97;1.70;;;;;;;14.12;36.46;96531.46;1789903;78;26317;-91
2022/02/18 11:11:44;;;;;;;6.22;1.82;;;;;;;14.55;36.03;96530.02;1790061;80;25687;-86
2022/02/18 11:14:17;;;;;;;4.17;1.62;;;;;;;14.90;35.42;96542.27;1770899;80;27455;-86
2022/02/18 11:16:51;;;;;;;6.58;2.10;;;;;;;14.93;35.08;96530.89;1731490;82;25759;-91
2022/02/18 11:19:16;;;;;;;6.78;2.40;;;;;;;15.04;35.02;96538.03;1771464;79;25881;-85
2022/02/18 11:21:43;;;;;;;4.67;1.90;;;;;;;15.04;34.29;96548.91;1731484;82;26580;-85
2022/02/18 11:24:10;;;;;;;5.12;1.75;;;;;;;14.64;33.83;96556.98;1770987;80;25705;-91
2022/02/18 11:26:37;;;;;;;6.37;1.75;;;;;;;14.31;34.26;96543.59;1731460;82;27491;-89
2022/02/18 11:29:05;;;;;;;5.40;1.85;;;;;;;14.49;34.37;96539.19;1770813;80;25873;-87
2022/02/18 11:31:50;;;;;;;3.85;1.70;;;;;;;14.62;34.73;96537.41;1770799;80;25878;-94
2022/02/18 11:34:22;;;;;;;6.97;1.80;;;;;;;14.76;34.61;96537.80;1731231;82;25764;-89
2022/02/18 11:37:28;;;;;;;6.15;2.12;;;;;;;14.98;34.42;96540.42;1771190;79;26385;-90
2022/02/18 11:40:25;;;;;;;3.65;1.72;;;;;;;15.09;34.47;96534.80;1731335;82;28215;-87
2022/02/18 11:43:17;;;;;;;4.72;2.02;;;;;;;15.01;33.32;96534.47;1770963;80;25738;-84
2022/02/18 11:45:43;;;;;;;8.20;1.92;;;;;;;14.79;33.94;96527.78;1731441;82;25839;-92